createdAt,value
2019-04-25T00:02:07.000Z,1.60
2019-04-25T00:04:38.742Z,0.33
2019-04-25T00:07:11.911Z,1.65
2019-04-25T00:09:51.619Z,0.82
2019-04-25T00:12:23.823Z,0.68
2019-04-25T00:14:54.429Z,0.65
2019-04-25T00:17:25.526Z,1.32
2019-04-25T00:19:56.094Z,1.45
2019-04-25T00:22:51.544Z,1.15
2019-04-25T00:25:44.450Z,1.42
2019-04-25T00:28:12.868Z,0.55
2019-04-25T00:30:44.463Z,0.55
2019-04-25T00:33:15.252Z,1.02
2019-04-25T00:35:45.864Z,0.10
2019-04-25T00:38:16.442Z,2.83
2019-04-25T00:40:48.009Z,0.57
2019-04-25T00:43:18.636Z,1.32
2019-04-25T00:45:49.559Z,0.88
2019-04-25T00:48:20.220Z,1.70
2019-04-25T00:50:52.079Z,1.10
2019-04-25T00:53:23.198Z,1.65
2019-04-25T00:55:53.868Z,0.23
2019-04-25T00:58:39.444Z,1.40
2019-04-25T01:01:31.772Z,0.80
2019-04-25T01:04:04.382Z,0.65
2019-04-25T01:06:34.932Z,1.87
2019-04-25T01:09:13.603Z,0.72
2019-04-25T01:11:44.358Z,1.90
2019-04-25T01:14:14.944Z,2.15
2019-04-25T01:16:45.482Z,2.35
2019-04-25T01:19:16.132Z,0.95
2019-04-25T01:21:47.005Z,4.80
2019-04-25T01:24:17.543Z,4.30
2019-04-25T01:26:48.264Z,3.02
2019-04-25T01:29:18.898Z,3.37
2019-04-25T01:31:50.106Z,1.12
2019-04-25T01:34:27.719Z,1.75
2019-04-25T01:37:06.406Z,0.65
2019-04-25T01:39:44.182Z,1.02
2019-04-25T01:42:39.201Z,5.17
2019-04-25T01:45:11.034Z,3.22
2019-04-25T01:47:41.581Z,2.00
2019-04-25T01:50:13.727Z,2.92
2019-04-25T01:52:44.245Z,1.72
2019-04-25T01:55:14.906Z,4.92
2019-04-25T01:57:46.915Z,0.85
2019-04-25T02:00:21.313Z,5.00
2019-04-25T02:02:54.550Z,1.40
2019-04-25T02:05:24.389Z,1.47
2019-04-25T02:07:55.789Z,2.30
2019-04-25T02:10:27.105Z,0.80
2019-04-25T02:13:00.649Z,2.90
2019-04-25T02:15:33.430Z,1.35
2019-04-25T02:18:04.283Z,1.00
2019-04-25T02:20:36.422Z,2.77
2019-04-25T02:23:06.933Z,0.68
2019-04-25T02:25:37.492Z,1.87
2019-04-25T02:28:08.076Z,0.72
2019-04-25T02:30:38.852Z,2.17
2019-04-25T02:33:11.180Z,2.10
2019-04-25T02:35:43.970Z,2.40
2019-04-25T02:38:16.647Z,0.90
2019-04-25T02:40:46.318Z,0.80
2019-04-25T02:43:16.855Z,0.65
2019-04-25T02:46:07.412Z,0.30
2019-04-25T02:49:09.136Z,1.85
2019-04-25T02:51:44.967Z,1.85
2019-04-25T02:54:14.729Z,0.40
2019-04-25T02:56:47.104Z,1.40
2019-04-25T02:59:17.674Z,1.72
2019-04-25T03:01:48.335Z,2.08
2019-04-25T03:04:18.890Z,1.40
2019-04-25T03:06:49.513Z,1.72
2019-04-25T03:09:20.033Z,0.45
2019-04-25T03:11:50.723Z,1.00
2019-04-25T03:14:21.323Z,2.17
2019-04-25T03:16:54.204Z,3.02
2019-04-25T03:19:43.992Z,0.82
2019-04-25T03:22:16.423Z,1.22
2019-04-25T03:24:47.069Z,0.20
2019-04-25T03:27:17.719Z,0.70
2019-04-25T03:29:48.244Z,0.80
2019-04-25T03:32:20.374Z,1.35
2019-04-25T03:34:50.907Z,1.95
2019-04-25T03:37:23.346Z,1.35
2019-04-25T03:39:54.018Z,1.55
2019-04-25T03:42:24.704Z,0.98
2019-04-25T03:44:55.239Z,0.17
2019-04-25T03:47:25.926Z,1.90
2019-04-25T03:49:56.515Z,1.15
2019-04-25T03:52:28.277Z,0.37
2019-04-25T03:55:00.130Z,0.55
2019-04-25T03:57:30.613Z,1.45
2019-04-25T04:00:01.229Z,0.82
2019-04-25T04:02:31.773Z,2.92
2019-04-25T04:05:04.860Z,0.80
2019-04-25T04:07:34.600Z,1.05
2019-04-25T04:10:06.599Z,0.95
2019-04-25T04:12:37.365Z,2.35
2019-04-25T04:15:08.503Z,1.32
2019-04-25T04:17:50.381Z,0.30
2019-04-25T04:20:48.560Z,2.72
2019-04-25T04:23:34.598Z,1.00
2019-04-25T04:26:05.372Z,1.05
2019-04-25T04:28:37.972Z,0.55
2019-04-25T04:31:08.506Z,1.32
2019-04-25T04:33:40.221Z,1.75
2019-04-25T04:36:10.897Z,0.60
2019-04-25T04:38:41.629Z,0.42
2019-04-25T04:41:13.900Z,1.25
2019-04-25T04:43:44.436Z,1.55
2019-04-25T04:46:18.197Z,0.88
2019-04-25T04:48:48.790Z,0.62
2019-04-25T04:51:19.363Z,0.40
2019-04-25T04:53:49.941Z,1.75
2019-04-25T04:56:20.584Z,0.80
2019-04-25T04:58:51.207Z,2.55
2019-04-25T05:01:24.768Z,0.57
2019-04-25T05:04:04.412Z,0.42
2019-04-25T05:06:43.707Z,1.20
2019-04-25T05:09:17.738Z,5.42
2019-04-25T05:11:48.434Z,2.37
2019-04-25T05:14:19.513Z,2.12
2019-04-25T05:16:51.241Z,0.62
2019-04-25T05:19:22.411Z,1.10
2019-04-25T05:21:54.091Z,0.78
2019-04-25T05:24:26.293Z,1.35
2019-04-25T05:26:57.006Z,0.40
2019-04-25T05:29:27.592Z,0.53
2019-04-25T05:31:58.201Z,3.77
2019-04-25T05:34:28.910Z,0.70
2019-04-25T05:36:59.479Z,1.95
2019-04-25T05:39:30.019Z,4.37
2019-04-25T05:42:15.138Z,0.60
2019-04-25T05:44:56.161Z,0.53
2019-04-25T05:47:27.214Z,0.50
2019-04-25T05:49:57.791Z,0.40
2019-04-25T05:52:28.363Z,1.75
2019-04-25T05:54:58.920Z,0.53
2019-04-25T05:57:29.536Z,1.95
2019-04-25T06:00:00.133Z,0.30
2019-04-25T06:02:30.689Z,1.95
2019-04-25T06:05:01.274Z,1.12
2019-04-25T06:07:33.152Z,0.50
2019-04-25T06:10:34.797Z,1.07
2019-04-25T06:13:30.342Z,0.23
2019-04-25T06:16:15.912Z,1.37
2019-04-25T06:19:19.669Z,0.30
2019-04-25T06:21:50.219Z,1.12
2019-04-25T06:24:35.666Z,1.22
2019-04-25T06:27:25.865Z,0.50
2019-04-25T06:30:20.380Z,2.33
2019-04-25T06:32:53.219Z,0.33
2019-04-25T06:35:25.140Z,0.50
2019-04-25T06:37:56.665Z,0.20
2019-04-25T06:40:29.739Z,0.98
2019-04-25T06:42:59.900Z,2.02
2019-04-25T06:45:58.715Z,1.22
2019-04-25T06:48:36.446Z,0.57
2019-04-25T06:51:07.138Z,2.47
2019-04-25T06:53:37.701Z,0.50
2019-04-25T06:56:08.276Z,0.50
2019-04-25T06:58:38.814Z,0.47
2019-04-25T07:01:09.654Z,0.25
2019-04-25T07:03:40.198Z,0.37
2019-04-25T07:06:10.897Z,0.23
2019-04-25T07:08:42.996Z,1.45
2019-04-25T07:11:14.068Z,0.75
2019-04-25T07:13:44.868Z,0.93
2019-04-25T07:16:15.469Z,0.68
2019-04-25T07:18:45.983Z,1.25
2019-04-25T07:21:18.791Z,0.10
2019-04-25T07:23:49.559Z,1.37
2019-04-25T07:26:39.745Z,0.88
2019-04-25T07:29:35.727Z,0.60
2019-04-25T07:32:24.234Z,0.47
2019-04-25T07:34:55.132Z,0.82
2019-04-25T07:37:26.093Z,1.40
2019-04-25T07:39:56.660Z,1.17
2019-04-25T07:42:27.675Z,0.55
2019-04-25T07:44:58.285Z,0.55
2019-04-25T07:47:29.262Z,1.00
2019-04-25T07:49:59.881Z,0.20
2019-04-25T07:52:30.911Z,0.45
2019-04-25T07:55:03.789Z,0.40
2019-04-25T07:57:34.974Z,0.60
2019-04-25T08:00:14.179Z,1.60
2019-04-25T08:02:45.020Z,0.60
2019-04-25T08:05:19.254Z,0.28
2019-04-25T08:07:49.816Z,0.53
2019-04-25T08:10:21.777Z,1.75
2019-04-25T08:12:53.614Z,1.95
2019-04-25T08:15:48.984Z,0.87
2019-04-25T08:18:20.383Z,1.60
2019-04-25T08:20:51.258Z,1.22
2019-04-25T08:23:23.837Z,2.33
2019-04-25T08:25:54.522Z,0.75
2019-04-25T08:28:25.264Z,0.62
2019-04-25T08:30:56.024Z,1.32
2019-04-25T08:33:27.099Z,0.93
2019-04-25T08:36:06.639Z,0.30
2019-04-25T08:38:31.513Z,0.95
2019-04-25T08:41:03.971Z,0.50
2019-04-25T08:43:38.766Z,0.72
2019-04-25T08:46:09.521Z,0.47
2019-04-25T08:48:57.616Z,1.32
2019-04-25T08:51:32.025Z,3.50
2019-04-25T08:54:09.263Z,1.67
2019-04-25T08:57:00.366Z,0.70
2019-04-25T08:59:53.060Z,2.05
2019-04-25T09:02:43.554Z,0.35
2019-04-25T09:05:21.891Z,5.87
2019-04-25T09:07:54.174Z,16.95
2019-04-25T09:10:24.983Z,102.27
2019-04-25T09:12:56.641Z,79.90
2019-04-25T09:15:27.194Z,49.03
2019-04-25T09:17:57.971Z,34.20
2019-04-25T09:20:28.560Z,15.28
2019-04-25T09:22:59.109Z,6.80
2019-04-25T09:25:29.693Z,6.15
2019-04-25T09:28:00.208Z,2.67
2019-04-25T09:30:30.855Z,1.42
2019-04-25T09:33:01.426Z,1.50
2019-04-25T09:35:33.475Z,0.70
2019-04-25T09:38:04.267Z,1.47
2019-04-25T09:40:37.233Z,1.80
2019-04-25T09:43:08.031Z,0.47
2019-04-25T09:45:57.501Z,0.50
2019-04-25T09:48:49.942Z,1.20
2019-04-25T09:51:30.407Z,1.20
2019-04-25T09:54:18.502Z,0.70
2019-04-25T09:56:51.192Z,1.45
2019-04-25T09:59:27.897Z,2.00
2019-04-25T10:01:57.153Z,0.30
2019-04-25T10:04:27.638Z,0.80
2019-04-25T10:06:58.232Z,1.30
2019-04-25T10:09:29.283Z,1.02
2019-04-25T10:11:59.857Z,0.78
2019-04-25T10:15:45.677Z,1.40
2019-04-25T10:18:16.425Z,0.53
2019-04-25T10:20:47.996Z,0.37
2019-04-25T10:23:18.559Z,1.05
2019-04-25T10:25:49.896Z,1.35
2019-04-25T10:28:20.529Z,0.70
2019-04-25T10:30:51.172Z,1.15
2019-04-25T10:33:25.321Z,0.85
2019-04-25T10:36:00.181Z,1.70
2019-04-25T10:38:29.129Z,0.68
2019-04-25T10:40:59.716Z,1.72
2019-04-25T10:43:30.281Z,2.30
2019-04-25T10:46:00.866Z,1.10
2019-04-25T10:48:31.494Z,1.02
2019-04-25T10:51:04.022Z,0.30
2019-04-25T10:53:34.471Z,1.30
2019-04-25T10:56:06.018Z,0.60
2019-04-25T10:58:37.054Z,0.75
2019-04-25T11:01:07.843Z,0.95
2019-04-25T11:04:00.031Z,1.17
2019-04-25T11:06:30.626Z,0.20
2019-04-25T11:09:01.196Z,0.95
2019-04-25T11:11:34.941Z,1.20
2019-04-25T11:14:07.469Z,0.37
2019-04-25T11:16:38.047Z,0.57
2019-04-25T11:19:09.568Z,0.35
2019-04-25T11:21:40.132Z,0.98
2019-04-25T11:24:10.669Z,0.20
2019-04-25T11:26:41.530Z,1.00
2019-04-25T11:29:13.248Z,0.57
2019-04-25T11:31:47.477Z,0.40
2019-04-25T11:34:18.929Z,1.55
2019-04-25T11:36:49.590Z,0.15
2019-04-25T11:39:38.203Z,0.70
2019-04-25T11:42:13.092Z,1.70
2019-04-25T11:44:45.767Z,0.40
2019-04-25T11:47:16.652Z,0.20
2019-04-25T11:49:47.860Z,0.70
2019-04-25T11:52:27.513Z,0.28
2019-04-25T11:54:52.971Z,1.50
2019-04-25T11:57:24.497Z,0.55
2019-04-25T11:59:55.916Z,1.27
2019-04-25T12:02:27.433Z,0.98
2019-04-25T12:04:58.011Z,0.23
2019-04-25T12:07:28.639Z,0.47
2019-04-25T12:09:59.154Z,1.75
2019-04-25T12:12:31.619Z,0.13
2019-04-25T12:15:04.457Z,2.15
2019-04-25T12:17:36.492Z,0.20
2019-04-25T12:20:07.395Z,0.13
2019-04-25T12:22:38.145Z,1.37
2019-04-25T12:25:09.448Z,1.32
2019-04-25T12:27:40.043Z,0.60
2019-04-25T12:30:11.079Z,0.85
2019-04-25T12:32:41.649Z,0.35
2019-04-25T12:35:14.110Z,0.40
2019-04-25T12:37:44.601Z,1.90
2019-04-25T12:40:15.552Z,0.23
2019-04-25T12:42:46.396Z,0.42
2019-04-25T12:45:34.398Z,0.90
2019-04-25T12:48:05.588Z,0.33
2019-04-25T12:50:36.182Z,0.75
2019-04-25T12:53:07.104Z,1.00
2019-04-25T12:55:37.652Z,2.12
2019-04-25T12:58:08.389Z,1.45
2019-04-25T13:00:47.807Z,0.45
2019-04-25T13:03:14.286Z,4.55
2019-04-25T13:05:45.009Z,2.45
2019-04-25T13:08:15.582Z,0.62
2019-04-25T13:10:46.288Z,0.85
2019-04-25T13:13:17.607Z,0.90
2019-04-25T13:15:48.351Z,0.68
2019-04-25T13:18:19.067Z,0.40
2019-04-25T13:20:49.666Z,2.02
2019-04-25T13:23:20.529Z,1.17
2019-04-25T13:25:51.229Z,1.57
2019-04-25T13:28:40.814Z,0.62
2019-04-25T13:31:33.276Z,2.62
2019-04-25T13:34:10.595Z,3.02
2019-04-25T13:36:41.164Z,1.55
2019-04-25T13:39:18.572Z,0.53
2019-04-25T13:41:50.281Z,0.30
2019-04-25T13:44:20.884Z,0.68
2019-04-25T13:46:53.201Z,0.53
2019-04-25T13:49:25.014Z,0.80
2019-04-25T13:51:55.679Z,2.15
2019-04-25T13:54:28.659Z,0.57
2019-04-25T13:57:00.375Z,0.82
2019-04-25T13:59:51.613Z,0.37
2019-04-25T14:02:22.763Z,0.40
2019-04-25T14:04:53.370Z,0.80
2019-04-25T14:07:24.849Z,1.20
2019-04-25T14:09:55.531Z,0.70
2019-04-25T14:12:26.881Z,0.55
2019-04-25T14:14:58.557Z,1.55
2019-04-25T14:17:46.386Z,0.80
2019-04-25T14:20:30.006Z,1.55
2019-04-25T14:23:00.652Z,0.72
2019-04-25T14:25:31.389Z,1.72
2019-04-25T14:28:02.002Z,0.72
2019-04-25T14:30:34.304Z,2.42
2019-04-25T14:33:05.121Z,4.05
2019-04-25T14:35:35.794Z,1.55
2019-04-25T14:38:06.439Z,1.55
2019-04-25T14:40:37.482Z,0.20
2019-04-25T14:43:08.400Z,0.93
2019-04-25T14:45:44.372Z,1.20
2019-04-25T14:48:12.358Z,0.60
2019-04-25T14:50:42.951Z,0.30
2019-04-25T14:53:13.791Z,0.47
2019-04-25T14:56:01.946Z,0.80
2019-04-25T14:58:36.676Z,2.37
2019-04-25T15:01:08.299Z,2.22
2019-04-25T15:03:38.870Z,0.82
2019-04-25T15:06:09.763Z,1.83
2019-04-25T15:08:40.592Z,1.72
2019-04-25T15:11:11.190Z,0.57
2019-04-25T15:13:41.767Z,0.68
2019-04-25T15:16:12.380Z,1.80
2019-04-25T15:18:46.876Z,0.75
2019-04-25T15:21:15.553Z,2.12
2019-04-25T15:23:46.154Z,1.10
2019-04-25T15:26:16.854Z,1.60
2019-04-25T15:28:47.397Z,2.05
2019-04-25T15:31:18.111Z,0.28
2019-04-25T15:33:48.769Z,1.22
2019-04-25T15:36:28.536Z,0.33
2019-04-25T15:39:37.151Z,0.82
2019-04-25T15:42:27.403Z,3.10
2019-04-25T15:45:15.524Z,0.60
2019-04-25T15:47:46.526Z,0.35
2019-04-25T15:50:17.653Z,0.95
2019-04-25T15:52:51.627Z,1.87
2019-04-25T15:55:22.314Z,1.62
2019-04-25T15:57:53.121Z,1.25
2019-04-25T16:00:33.156Z,0.70
2019-04-25T16:03:04.050Z,2.02
2019-04-25T16:05:35.597Z,1.12
2019-04-25T16:08:07.281Z,1.20
2019-04-25T16:10:39.706Z,1.12
2019-04-25T16:13:10.916Z,1.10
2019-04-25T16:15:41.637Z,0.60
2019-04-25T16:18:12.234Z,1.82
2019-04-25T16:20:42.941Z,0.93
2019-04-25T16:23:32.551Z,0.90
2019-04-25T16:26:03.613Z,1.95
2019-04-25T16:28:34.157Z,1.17
2019-04-25T16:31:06.795Z,0.70
2019-04-25T16:33:37.738Z,0.72
2019-04-25T16:36:10.001Z,2.95
2019-04-25T16:38:41.075Z,1.35
2019-04-25T16:41:13.151Z,1.17
2019-04-25T16:43:48.269Z,0.33
2019-04-25T16:46:21.899Z,0.30
2019-04-25T16:48:52.639Z,0.70
2019-04-25T16:51:23.411Z,1.02
2019-04-25T16:53:54.043Z,0.40
2019-04-25T16:56:24.691Z,0.65
2019-04-25T16:58:55.360Z,1.95
2019-04-25T17:01:27.657Z,0.93
2019-04-25T17:03:58.395Z,1.27
2019-04-25T17:06:29.991Z,1.90
2019-04-25T17:09:00.796Z,1.12
2019-04-25T17:11:31.959Z,1.12
2019-04-25T17:14:21.524Z,0.50
2019-04-25T17:17:17.135Z,1.75
2019-04-25T17:20:00.925Z,1.47
2019-04-25T17:22:30.936Z,1.90
2019-04-25T17:25:01.567Z,1.57
2019-04-25T17:27:33.140Z,2.87
2019-04-25T17:30:03.937Z,0.30
2019-04-25T17:32:54.118Z,0.65
2019-04-25T17:35:37.390Z,1.42
2019-04-25T17:38:12.457Z,0.53
2019-04-25T17:40:43.141Z,1.20
2019-04-25T17:43:13.795Z,0.90
2019-04-25T17:45:44.513Z,1.47
2019-04-25T17:48:16.183Z,1.37
2019-04-25T17:50:46.826Z,0.68
2019-04-25T17:53:17.574Z,0.57
2019-04-25T17:55:48.347Z,1.98
2019-04-25T17:58:18.920Z,0.57
2019-04-25T18:00:49.568Z,0.62
2019-04-25T18:03:21.614Z,1.17
2019-04-25T18:05:52.282Z,1.95
2019-04-25T18:08:23.841Z,1.92
2019-04-25T18:10:57.137Z,1.90
2019-04-25T18:13:27.712Z,0.50
2019-04-25T18:16:17.158Z,0.55
2019-04-25T18:18:57.275Z,0.85
2019-04-25T18:21:27.846Z,3.02
2019-04-25T18:24:20.184Z,0.65
2019-04-25T18:27:01.057Z,0.35
2019-04-25T18:29:31.722Z,1.45
2019-04-25T18:32:02.437Z,5.12
2019-04-25T18:34:53.765Z,2.05
2019-04-25T18:37:42.678Z,1.15
2019-04-25T18:40:33.978Z,2.27
2019-04-25T18:43:23.529Z,0.72
2019-04-25T18:46:08.025Z,1.75
2019-04-25T18:48:38.611Z,1.47
2019-04-25T18:51:09.202Z,0.93
2019-04-25T18:54:04.554Z,0.82
2019-04-25T18:56:39.288Z,1.92
2019-04-25T18:59:27.698Z,1.27
2019-04-25T19:02:23.536Z,1.25
2019-04-25T19:05:13.068Z,3.12
2019-04-25T19:07:43.761Z,1.02
2019-04-25T19:10:16.402Z,1.70
2019-04-25T19:12:47.346Z,1.65
2019-04-25T19:15:18.279Z,1.73
2019-04-25T19:17:50.196Z,1.00
2019-04-25T19:20:21.972Z,2.33
2019-04-25T19:22:52.727Z,1.60
2019-04-25T19:25:23.455Z,0.98
2019-04-25T19:27:55.829Z,1.92
2019-04-25T19:30:26.550Z,1.60
2019-04-25T19:32:57.219Z,3.75
2019-04-25T19:35:27.797Z,2.20
2019-04-25T19:37:58.995Z,2.35
2019-04-25T19:40:39.619Z,1.85
2019-04-25T19:43:25.385Z,3.40
2019-04-25T19:45:56.010Z,2.08
2019-04-25T19:48:26.566Z,4.42
2019-04-25T19:50:58.592Z,2.95
2019-04-25T19:53:29.145Z,3.05
2019-04-25T19:55:59.807Z,2.77
2019-04-25T19:58:30.399Z,2.45
2019-04-25T20:01:01.122Z,3.58
2019-04-25T20:03:47.533Z,5.08
2019-04-25T20:06:25.070Z,2.27
2019-04-25T20:09:04.572Z,4.50
2019-04-25T20:11:43.828Z,2.87
2019-04-25T20:14:14.897Z,2.22
2019-04-25T20:16:46.169Z,4.28
2019-04-25T20:19:16.739Z,3.35
2019-04-25T20:21:48.777Z,3.42
2019-04-25T20:24:20.577Z,2.15
2019-04-25T20:26:51.176Z,4.35
2019-04-25T20:29:23.230Z,3.45
2019-04-25T20:31:54.828Z,2.50
2019-04-25T20:34:25.437Z,3.62
2019-04-25T20:36:56.119Z,3.02
2019-04-25T20:39:28.488Z,6.35
2019-04-25T20:41:59.057Z,3.83
2019-04-25T20:44:29.577Z,3.10
2019-04-25T20:47:00.155Z,5.85
2019-04-25T20:49:30.698Z,3.00
2019-04-25T20:52:01.330Z,4.83
2019-04-25T20:54:31.876Z,3.30
2019-04-25T20:57:02.440Z,2.27
2019-04-25T20:59:33.097Z,7.67
2019-04-25T21:02:05.932Z,5.15
2019-04-25T21:04:39.662Z,4.10
2019-04-25T21:07:10.772Z,4.70
2019-04-25T21:09:41.580Z,8.08
2019-04-25T21:12:12.482Z,5.55
2019-04-25T21:15:20.045Z,5.20
2019-04-25T21:18:03.638Z,6.28
2019-04-25T21:20:34.211Z,6.45
2019-04-25T21:23:04.950Z,5.47
2019-04-25T21:25:35.587Z,7.90
2019-04-25T21:28:07.357Z,6.97
2019-04-25T21:30:38.007Z,6.78
2019-04-25T21:33:08.662Z,4.85
2019-04-25T21:35:39.597Z,4.58
2019-04-25T21:38:10.173Z,5.45
2019-04-25T21:40:51.347Z,6.67
2019-04-25T21:43:25.870Z,5.60
2019-04-25T21:45:56.685Z,3.75
2019-04-25T21:48:27.690Z,8.75
2019-04-25T21:51:01.066Z,5.03
2019-04-25T21:53:32.923Z,5.00
2019-04-25T21:56:04.089Z,7.25
2019-04-25T21:58:34.691Z,5.50
2019-04-25T22:01:14.396Z,6.33
2019-04-25T22:03:44.987Z,4.17
2019-04-25T22:06:17.756Z,5.22
2019-04-25T22:08:48.429Z,5.58
2019-04-25T22:11:18.987Z,5.30
2019-04-25T22:13:49.740Z,4.30
2019-04-25T22:16:20.657Z,4.30
2019-04-25T22:18:51.713Z,5.35
2019-04-25T22:21:23.263Z,3.87
2019-04-25T22:24:05.991Z,5.78
2019-04-25T22:26:26.613Z,5.50
2019-04-25T22:28:57.741Z,3.85
2019-04-25T22:31:33.657Z,4.35
2019-04-25T22:34:17.989Z,5.12
2019-04-25T22:36:49.102Z,3.92
2019-04-25T22:39:20.064Z,4.70
2019-04-25T22:41:51.238Z,3.83
2019-04-25T22:44:22.801Z,5.40
2019-04-25T22:46:54.127Z,5.55
2019-04-25T22:49:26.532Z,5.37
2019-04-25T22:51:57.125Z,6.80
2019-04-25T22:54:29.268Z,4.80
2019-04-25T22:57:00.092Z,3.45
2019-04-25T22:59:32.020Z,3.80
2019-04-25T23:02:14.663Z,3.77
2019-04-25T23:05:15.043Z,4.55
2019-04-25T23:07:42.701Z,3.55
2019-04-25T23:10:13.935Z,3.80
2019-04-25T23:12:44.484Z,4.03
2019-04-25T23:15:17.475Z,3.33
2019-04-25T23:17:48.309Z,3.90
2019-04-25T23:20:21.780Z,4.03
2019-04-25T23:22:52.434Z,3.00
2019-04-25T23:25:28.946Z,4.33
2019-04-25T23:28:18.398Z,2.77
2019-04-25T23:31:12.589Z,4.30
2019-04-25T23:33:43.246Z,5.47
2019-04-25T23:36:15.272Z,4.60
2019-04-25T23:38:45.949Z,6.53
2019-04-25T23:41:16.899Z,3.42
2019-04-25T23:43:47.423Z,3.25
2019-04-25T23:46:17.987Z,4.65
2019-04-25T23:48:48.567Z,5.20
2019-04-25T23:51:19.466Z,4.05
2019-04-25T23:53:50.485Z,5.03
2019-04-25T23:56:22.152Z,4.97
2019-04-25T23:58:53.104Z,4.65
